Time;durP1;ratioP1;P1;durP2;ratioP2;P2;SDS_P1;SDS_P2;PMS_P1;PMS_P2;Temp;Humidity;BMP_temperature;BMP_pressure;BME280_temperature;BME280_humidity;BME280_pressure;Samples;Min_cycle;Max_cycle;Signal;HPM_P1;HPM_P2
2023/07/24 00:01:04;;;;;;;0.80;0.70;;;25.10;56.70;;;;;;5040707;28;20063;-62
2023/07/24 00:03:30;;;;;;;0.55;0.55;;;25.10;56.70;;;;;;5034766;28;20040;-60
2023/07/24 00:05:59;;;;;;;0.77;0.70;;;25.10;56.70;;;;;;5037068;28;20036;-61
2023/07/24 00:08:25;;;;;;;0.75;0.60;;;25.10;56.70;;;;;;5041524;28;20040;-60
2023/07/24 00:10:51;;;;;;;1.98;0.77;;;25.10;56.70;;;;;;5017555;28;20014;-61
2023/07/24 00:13:17;;;;;;;0.80;0.60;;;25.10;56.70;;;;;;5039943;28;20077;-60
2023/07/24 00:15:43;;;;;;;0.63;0.60;;;25.10;56.70;;;;;;5051845;28;20025;-60
2023/07/24 00:18:08;;;;;;;1.48;0.60;;;25.10;56.70;;;;;;5026338;28;20364;-65
2023/07/24 00:20:34;;;;;;;0.95;0.80;;;25.10;56.70;;;;;;5042398;28;20033;-62
2023/07/24 00:23:00;;;;;;;0.70;0.45;;;25.10;56.70;;;;;;5037552;28;20128;-61
2023/07/24 00:25:26;;;;;;;0.63;0.60;;;25.00;56.60;;;;;;5034390;28;20099;-62
2023/07/24 00:27:52;;;;;;;0.75;0.50;;;25.00;56.70;;;;;;5041076;28;20029;-63
2023/07/24 00:30:18;;;;;;;0.85;0.57;;;25.00;56.70;;;;;;5018702;28;20040;-62
2023/07/24 00:32:44;;;;;;;0.73;0.70;;;25.00;56.70;;;;;;5021264;28;20056;-63
2023/07/24 00:35:09;;;;;;;0.88;0.55;;;25.00;56.70;;;;;;5026153;28;20032;-60
2023/07/24 00:37:35;;;;;;;0.50;0.50;;;25.00;56.70;;;;;;5025030;28;20049;-61
2023/07/24 00:40:02;;;;;;;0.80;0.77;;;25.00;56.70;;;;;;5022197;28;20040;-59
2023/07/24 00:42:28;;;;;;;1.00;0.60;;;25.00;56.70;;;;;;5038796;28;20138;-60
2023/07/24 00:44:54;;;;;;;0.65;0.60;;;25.00;56.80;;;;;;5043607;28;20033;-61
2023/07/24 00:47:20;;;;;;;0.73;0.60;;;25.00;56.70;;;;;;5043232;28;20037;-61
2023/07/24 00:49:47;;;;;;;0.95;0.60;;;25.00;56.70;;;;;;5028723;28;20393;-61
2023/07/24 00:52:14;;;;;;;0.88;0.60;;;25.00;56.70;;;;;;5044362;28;20044;-61
2023/07/24 00:54:40;;;;;;;0.57;0.50;;;25.00;56.70;;;;;;5021106;28;20025;-62
2023/07/24 00:57:06;;;;;;;0.50;0.50;;;25.00;56.70;;;;;;5045294;28;20044;-62
2023/07/24 00:59:32;;;;;;;0.57;0.47;;;25.00;56.60;;;;;;5042424;28;20053;-61
2023/07/24 01:01:58;;;;;;;1.13;0.65;;;25.00;56.60;;;;;;5042718;28;20436;-60
2023/07/24 01:04:24;;;;;;;0.98;0.63;;;25.00;56.60;;;;;;5039603;28;20053;-62
2023/07/24 01:06:51;;;;;;;0.65;0.50;;;25.00;56.60;;;;;;5041772;28;20131;-62
2023/07/24 01:09:17;;;;;;;0.65;0.50;;;25.00;56.70;;;;;;5023927;28;20077;-62
2023/07/24 01:12:10;;;;;;;0.52;0.52;;;25.00;56.60;;;;;;5047197;28;20029;-59
2023/07/24 01:14:49;;;;;;;0.52;0.52;;;25.00;56.60;;;;;;5028083;28;20441;-61
2023/07/24 01:17:26;;;;;;;0.88;0.60;;;25.00;56.70;;;;;;5023696;28;20392;-62
2023/07/24 01:19:56;;;;;;;0.77;0.70;;;25.00;56.70;;;;;;5041879;28;20097;-62
2023/07/24 01:22:28;;;;;;;0.75;0.60;;;25.00;56.80;;;;;;5045545;28;20048;-61
2023/07/24 01:25:23;;;;;;;0.75;0.50;;;25.00;57.40;;;;;;5040322;28;20112;-61
2023/07/24 01:27:49;;;;;;;0.70;0.50;;;25.00;56.80;;;;;;5034425;28;20114;-59
2023/07/24 01:30:18;;;;;;;1.02;0.70;;;25.00;56.80;;;;;;5038991;28;20115;-63
2023/07/24 01:32:44;;;;;;;0.43;0.40;;;25.00;56.80;;;;;;5043982;28;20075;-62
2023/07/24 01:35:11;;;;;;;0.73;0.52;;;25.00;56.90;;;;;;5041095;28;20032;-63
2023/07/24 01:37:40;;;;;;;0.70;0.70;;;25.00;56.90;;;;;;5040029;28;20029;-62
2023/07/24 01:40:07;;;;;;;1.02;0.70;;;25.00;56.90;;;;;;5046506;28;20033;-65
2023/07/24 01:42:34;;;;;;;0.60;0.60;;;25.00;56.90;;;;;;5026740;28;20045;-62
2023/07/24 01:45:02;;;;;;;0.60;0.60;;;24.90;56.90;;;;;;5042365;28;20410;-62
2023/07/24 01:47:27;;;;;;;1.02;0.70;;;24.90;57.40;;;;;;5024259;28;20056;-62
2023/07/24 01:49:54;;;;;;;0.70;0.70;;;24.90;56.90;;;;;;5037979;28;20025;-64
2023/07/24 01:52:20;;;;;;;0.98;0.75;;;24.90;56.90;;;;;;5042560;28;20025;-65
2023/07/24 01:54:46;;;;;;;1.00;0.70;;;24.90;56.90;;;;;;5040475;28;20405;-63
2023/07/24 01:57:12;;;;;;;0.77;0.77;;;24.90;56.90;;;;;;5019592;28;20037;-63
2023/07/24 01:59:38;;;;;;;0.68;0.63;;;24.90;56.90;;;;;;5025116;28;20121;-64
2023/07/24 02:02:04;;;;;;;0.98;0.80;;;24.90;57.00;;;;;;5022915;28;20036;-64
2023/07/24 02:04:30;;;;;;;0.60;0.60;;;24.90;57.00;;;;;;5036910;28;20107;-62
2023/07/24 02:06:56;;;;;;;0.73;0.70;;;24.90;57.00;;;;;;5022871;28;20031;-63
2023/07/24 02:09:22;;;;;;;1.08;0.60;;;24.90;57.00;;;;;;5045467;28;20022;-62
2023/07/24 02:11:47;;;;;;;0.63;0.60;;;24.90;57.00;;;;;;5043815;28;20382;-63
2023/07/24 02:14:16;;;;;;;0.82;0.80;;;24.90;57.00;;;;;;5020814;28;20029;-62
2023/07/24 02:16:43;;;;;;;1.25;0.95;;;24.90;57.10;;;;;;5012173;28;20040;-62
2023/07/24 02:19:09;;;;;;;0.93;0.80;;;24.90;57.70;;;;;;5024728;28;20029;-62
2023/07/24 02:21:35;;;;;;;0.73;0.65;;;24.90;57.10;;;;;;5042467;28;20440;-61
2023/07/24 02:24:00;;;;;;;0.60;0.60;;;24.90;57.10;;;;;;5038565;28;20029;-64
2023/07/24 02:26:26;;;;;;;0.80;0.75;;;24.90;57.10;;;;;;5037201;28;20049;-63
2023/07/24 02:28:53;;;;;;;0.63;0.60;;;24.90;57.10;;;;;;5042583;28;20036;-63
2023/07/24 02:31:20;;;;;;;2.20;0.60;;;24.90;57.10;;;;;;5047270;28;20029;-64
2023/07/24 02:33:46;;;;;;;0.88;0.70;;;24.90;57.10;;;;;;5028972;28;20049;-61
2023/07/24 02:36:13;;;;;;;1.05;0.70;;;24.90;57.10;;;;;;5021091;28;20073;-65
2023/07/24 02:38:40;;;;;;;1.10;0.80;;;24.90;57.70;;;;;;5024298;28;20131;-63
2023/07/24 02:41:09;;;;;;;1.02;0.60;;;24.90;57.10;;;;;;5024212;28;20099;-64
2023/07/24 02:43:35;;;;;;;1.20;0.70;;;24.90;57.10;;;;;;5041990;28;20029;-62
2023/07/24 02:46:02;;;;;;;1.00;0.85;;;24.90;57.10;;;;;;5012967;28;20428;-65
2023/07/24 02:48:28;;;;;;;1.02;0.93;;;24.90;57.20;;;;;;5018531;28;20125;-64
2023/07/24 02:50:54;;;;;;;0.60;0.60;;;24.90;57.20;;;;;;5019013;28;20075;-64
2023/07/24 02:53:20;;;;;;;0.70;0.70;;;24.90;57.20;;;;;;5021140;28;20126;-61
2023/07/24 02:55:46;;;;;;;0.90;0.75;;;24.90;57.20;;;;;;5018234;28;20109;-62
2023/07/24 02:58:15;;;;;;;1.35;0.77;;;24.90;57.30;;;;;;5016478;28;20121;-63
2023/07/24 03:00:41;;;;;;;0.75;0.75;;;24.90;57.30;;;;;;5019440;28;20045;-61
2023/07/24 03:03:07;;;;;;;0.90;0.90;;;24.90;57.30;;;;;;5018928;28;20208;-62
2023/07/24 03:05:36;;;;;;;0.93;0.70;;;24.90;57.30;;;;;;5015404;28;20070;-63
2023/07/24 03:08:02;;;;;;;0.68;0.65;;;24.90;57.40;;;;;;5023476;28;20109;-63
2023/07/24 03:10:29;;;;;;;1.02;0.82;;;24.90;57.40;;;;;;5014965;28;20044;-66
2023/07/24 03:12:55;;;;;;;1.45;1.10;;;24.90;57.50;;;;;;5019735;28;20029;-62
2023/07/24 03:15:21;;;;;;;0.90;0.70;;;24.90;57.50;;;;;;5015636;28;20041;-65
2023/07/24 03:17:47;;;;;;;1.00;0.80;;;24.90;57.50;;;;;;5021705;28;20026;-62
2023/07/24 03:20:16;;;;;;;1.20;0.98;;;24.90;57.50;;;;;;5017738;28;20021;-61
2023/07/24 03:22:42;;;;;;;1.00;0.90;;;24.80;57.50;;;;;;5017950;28;20188;-64
2023/07/24 03:25:08;;;;;;;1.10;0.90;;;24.90;57.60;;;;;;5018883;28;20029;-62
2023/07/24 03:27:34;;;;;;;1.55;0.93;;;24.80;57.60;;;;;;5021753;28;20033;-62
2023/07/24 03:30:01;;;;;;;0.90;0.80;;;24.80;57.60;;;;;;5013264;28;20067;-63
2023/07/24 03:32:27;;;;;;;1.30;0.93;;;24.80;57.60;;;;;;5019725;28;20045;-64
2023/07/24 03:34:53;;;;;;;1.25;1.00;;;24.80;57.70;;;;;;5021525;28;20029;-65
2023/07/24 03:37:19;;;;;;;1.00;0.90;;;24.80;57.60;;;;;;5017707;28;20033;-62
2023/07/24 03:39:45;;;;;;;1.38;0.88;;;24.80;57.70;;;;;;5022857;28;20437;-66
2023/07/24 03:42:14;;;;;;;0.90;0.90;;;24.80;57.60;;;;;;5014671;28;20049;-64
2023/07/24 03:44:40;;;;;;;2.35;0.90;;;24.80;57.70;;;;;;5013343;28;20048;-63
2023/07/24 03:47:07;;;;;;;1.20;1.10;;;24.80;57.60;;;;;;5017746;28;20064;-63
2023/07/24 03:49:34;;;;;;;1.42;1.00;;;24.80;57.60;;;;;;5016487;28;20021;-62
2023/07/24 03:51:59;;;;;;;0.88;0.88;;;24.80;57.60;;;;;;5019625;28;20044;-60
2023/07/24 03:54:25;;;;;;;1.05;0.95;;;24.80;57.60;;;;;;5018414;28;20038;-63
2023/07/24 03:56:51;;;;;;;1.52;1.10;;;24.80;57.60;;;;;;5016123;28;20038;-63
2023/07/24 03:59:17;;;;;;;1.80;1.15;;;24.80;57.60;;;;;;5022431;28;20037;-61
2023/07/24 04:01:43;;;;;;;1.05;0.95;;;24.80;57.60;;;;;;5014448;28;20163;-63
2023/07/24 04:04:09;;;;;;;1.20;1.10;;;24.80;57.60;;;;;;5018042;28;20565;-63
2023/07/24 04:06:35;;;;;;;1.35;1.20;;;24.80;57.50;;;;;;5017175;28;20173;-63
2023/07/24 04:09:01;;;;;;;1.02;0.95;;;24.80;57.50;;;;;;5020017;28;20111;-64
2023/07/24 04:11:26;;;;;;;1.20;1.08;;;24.80;57.50;;;;;;5017020;28;20107;-64
2023/07/24 04:13:52;;;;;;;1.27;1.10;;;24.80;57.50;;;;;;5017503;28;20026;-64
2023/07/24 04:16:19;;;;;;;1.52;1.10;;;24.80;57.50;;;;;;5022754;28;20036;-63
2023/07/24 04:18:44;;;;;;;5.13;1.00;;;24.80;57.50;;;;;;5023547;28;20029;-64
2023/07/24 04:21:10;;;;;;;1.20;0.95;;;24.80;57.50;;;;;;5017379;28;20346;-62
2023/07/24 04:23:36;;;;;;;1.50;1.40;;;24.80;57.50;;;;;;5017774;28;20645;-61
2023/07/24 04:26:02;;;;;;;1.30;0.90;;;24.80;57.50;;;;;;5015984;28;20024;-63
2023/07/24 04:28:28;;;;;;;1.10;1.00;;;24.80;57.40;;;;;;5025483;28;20025;-65
2023/07/24 04:30:54;;;;;;;1.33;1.05;;;24.70;57.40;;;;;;5025800;28;20025;-62
2023/07/24 04:33:20;;;;;;;1.42;0.93;;;24.80;57.40;;;;;;5018492;28;20033;-64
2023/07/24 04:35:49;;;;;;;1.30;0.95;;;24.70;57.40;;;;;;5021213;28;20140;-62
2023/07/24 04:38:14;;;;;;;1.08;0.98;;;24.70;57.30;;;;;;5026602;28;20033;-65
2023/07/24 04:40:44;;;;;;;0.98;0.90;;;24.80;57.30;;;;;;5022514;28;20117;-63
2023/07/24 04:43:10;;;;;;;1.00;0.90;;;24.70;57.20;;;;;;5025094;28;20133;-62
2023/07/24 04:45:36;;;;;;;0.90;0.80;;;24.70;57.20;;;;;;5028992;28;20087;-61
2023/07/24 04:48:02;;;;;;;1.15;0.90;;;24.70;57.20;;;;;;5045347;28;20029;-62
2023/07/24 04:50:29;;;;;;;1.40;1.00;;;24.70;57.20;;;;;;5043926;28;20153;-62
2023/07/24 04:52:55;;;;;;;1.20;1.10;;;24.70;57.20;;;;;;5042736;28;20159;-63
2023/07/24 04:55:22;;;;;;;1.10;1.00;;;24.70;57.20;;;;;;5045345;28;20025;-63
2023/07/24 04:57:48;;;;;;;1.30;1.00;;;24.70;57.20;;;;;;5045707;28;20029;-64
2023/07/24 05:00:14;;;;;;;1.60;1.05;;;24.70;57.50;;;;;;5047279;28;20028;-62
2023/07/24 05:02:40;;;;;;;1.00;0.82;;;24.70;57.20;;;;;;5025268;28;20408;-62
2023/07/24 05:05:06;;;;;;;1.20;1.10;;;24.70;57.20;;;;;;5049928;28;20127;-65
2023/07/24 05:07:32;;;;;;;1.60;1.10;;;24.70;57.20;;;;;;5046578;28;20025;-62
2023/07/24 05:09:59;;;;;;;1.17;0.85;;;24.70;57.20;;;;;;5048492;28;20048;-63
2023/07/24 05:12:25;;;;;;;1.13;0.95;;;24.70;57.20;;;;;;5049190;28;20036;-64
2023/07/24 05:14:51;;;;;;;1.10;1.00;;;24.70;57.20;;;;;;5026634;28;20452;-65
2023/07/24 05:17:17;;;;;;;1.35;1.05;;;24.70;57.20;;;;;;5045521;28;20024;-62
2023/07/24 05:19:43;;;;;;;1.27;1.17;;;24.70;57.20;;;;;;5049311;28;20025;-65
2023/07/24 05:22:10;;;;;;;1.10;1.00;;;24.70;57.10;;;;;;5048029;28;20033;-63
2023/07/24 05:24:37;;;;;;;1.10;1.00;;;24.70;57.10;;;;;;5048167;28;20325;-64
2023/07/24 05:27:04;;;;;;;1.25;1.10;;;24.70;57.10;;;;;;5047761;28;20039;-62
2023/07/24 05:29:30;;;;;;;1.00;0.90;;;24.70;57.10;;;;;;5045429;28;20026;-59
2023/07/24 05:31:56;;;;;;;1.77;1.25;;;24.70;57.10;;;;;;5046966;28;20547;-61
2023/07/24 05:34:21;;;;;;;1.48;1.20;;;24.70;57.10;;;;;;5046749;28;20480;-61
2023/07/24 05:36:47;;;;;;;1.33;1.00;;;24.70;57.10;;;;;;5048879;28;20159;-62
2023/07/24 05:39:13;;;;;;;1.10;1.00;;;24.70;57.10;;;;;;5048994;28;20112;-58
2023/07/24 05:41:39;;;;;;;1.20;1.00;;;24.70;57.10;;;;;;5046900;28;20054;-59
2023/07/24 05:44:05;;;;;;;1.48;1.35;;;24.70;57.10;;;;;;5049539;28;20486;-59
2023/07/24 05:46:31;;;;;;;1.60;1.23;;;24.70;57.00;;;;;;5046403;28;20059;-59
2023/07/24 05:48:57;;;;;;;1.67;1.40;;;24.70;57.00;;;;;;5045787;28;20025;-60
2023/07/24 05:51:23;;;;;;;1.92;1.30;;;24.70;57.00;;;;;;5047482;28;20150;-61
2023/07/24 05:53:49;;;;;;;1.77;1.50;;;24.70;57.00;;;;;;5047613;28;20044;-60
2023/07/24 05:56:15;;;;;;;1.30;1.20;;;24.70;57.00;;;;;;5047991;28;20397;-60
2023/07/24 05:58:41;;;;;;;1.60;1.33;;;24.70;57.00;;;;;;5024658;28;20056;-59
2023/07/24 06:01:09;;;;;;;1.40;1.30;;;24.70;57.00;;;;;;5048421;28;20065;-59
2023/07/24 06:03:36;;;;;;;1.23;1.13;;;24.70;57.00;;;;;;5049748;28;20444;-62
2023/07/24 06:06:02;;;;;;;1.58;1.27;;;24.70;57.00;;;;;;5047270;28;20029;-60
2023/07/24 06:08:28;;;;;;;2.28;1.55;;;24.70;57.00;;;;;;5045563;28;20072;-62
2023/07/24 06:10:54;;;;;;;1.50;1.27;;;24.70;57.00;;;;;;5026893;28;20047;-61
2023/07/24 06:13:20;;;;;;;2.78;1.20;;;24.70;57.00;;;;;;5047537;28;20040;-61
2023/07/24 06:15:50;;;;;;;1.52;1.25;;;24.70;57.00;;;;;;5025099;28;20079;-62
2023/07/24 06:18:16;;;;;;;1.92;1.50;;;24.70;57.00;;;;;;5041118;28;20170;-61
2023/07/24 06:20:42;;;;;;;1.55;1.27;;;24.70;57.00;;;;;;5044330;28;20052;-61
2023/07/24 06:23:08;;;;;;;1.65;1.38;;;24.70;57.00;;;;;;5049187;28;20547;-60
2023/07/24 06:25:34;;;;;;;1.65;1.48;;;24.70;57.00;;;;;;5048590;28;20033;-62
2023/07/24 06:28:00;;;;;;;1.50;1.23;;;24.70;56.90;;;;;;5028299;28;20124;-61
2023/07/24 06:30:26;;;;;;;4.68;1.55;;;24.70;56.90;;;;;;5043437;28;20338;-62
2023/07/24 06:32:52;;;;;;;1.80;1.40;;;24.70;56.90;;;;;;5046618;28;20316;-60
2023/07/24 06:35:18;;;;;;;2.00;1.50;;;24.70;56.90;;;;;;5046531;28;20025;-62
2023/07/24 06:37:45;;;;;;;1.52;1.20;;;24.70;56.80;;;;;;5047216;28;20073;-63
2023/07/24 06:40:11;;;;;;;2.28;1.67;;;24.70;56.80;;;;;;5047302;28;20061;-63
2023/07/24 06:42:38;;;;;;;2.03;1.67;;;24.70;56.80;;;;;;5026623;28;20052;-61
2023/07/24 06:45:05;;;;;;;2.40;1.77;;;24.70;56.80;;;;;;5051088;28;20029;-61
2023/07/24 06:47:31;;;;;;;1.92;1.50;;;24.70;56.80;;;;;;5042160;28;20333;-60
2023/07/24 06:49:57;;;;;;;2.90;2.20;;;24.80;56.80;;;;;;5046532;28;20051;-63
2023/07/24 06:52:23;;;;;;;2.03;1.60;;;24.80;56.80;;;;;;5046961;28;20104;-61
2023/07/24 06:54:49;;;;;;;2.70;1.60;;;24.80;56.80;;;;;;5044373;28;20124;-60
2023/07/24 06:57:15;;;;;;;2.13;1.70;;;24.80;56.70;;;;;;5044623;28;20067;-62
2023/07/24 06:59:41;;;;;;;1.65;1.50;;;24.80;56.70;;;;;;5044739;28;20044;-61
2023/07/24 07:02:09;;;;;;;2.55;1.90;;;24.80;56.70;;;;;;5045013;28;20131;-63
2023/07/24 07:04:35;;;;;;;1.95;1.63;;;24.80;56.70;;;;;;5035722;28;20182;-60
2023/07/24 07:07:01;;;;;;;3.13;1.55;;;24.80;56.70;;;;;;5042177;28;20036;-61
2023/07/24 07:09:27;;;;;;;1.73;1.50;;;24.80;56.70;;;;;;5046776;28;20031;-61
2023/07/24 07:11:53;;;;;;;2.00;1.80;;;24.80;56.70;;;;;;5042313;28;20029;-62
2023/07/24 07:14:19;;;;;;;2.00;1.80;;;24.80;56.60;;;;;;5040292;28;20062;-63
2023/07/24 07:16:47;;;;;;;2.72;1.80;;;24.80;56.60;;;;;;5041621;28;20122;-63
2023/07/24 07:19:13;;;;;;;2.30;1.85;;;24.80;56.50;;;;;;5047209;28;20365;-61
2023/07/24 07:21:39;;;;;;;2.45;1.88;;;24.80;56.50;;;;;;5043778;28;20139;-63
2023/07/24 07:24:05;;;;;;;1.80;1.48;;;24.90;56.70;;;;;;5043599;28;20039;-62
2023/07/24 07:26:31;;;;;;;1.95;1.73;;;24.90;56.70;;;;;;5039956;28;20136;-63
2023/07/24 07:28:57;;;;;;;2.33;1.73;;;24.90;56.60;;;;;;5041545;28;20112;-64
2023/07/24 07:31:23;;;;;;;2.97;1.88;;;24.90;56.60;;;;;;5043846;28;20108;-61
2023/07/24 07:33:48;;;;;;;1.77;1.63;;;24.90;56.50;;;;;;5037115;28;20026;-62
2023/07/24 07:36:14;;;;;;;2.00;1.70;;;24.90;56.40;;;;;;5009634;28;20460;-62
2023/07/24 07:38:40;;;;;;;2.42;1.90;;;24.90;56.40;;;;;;5043924;28;20029;-62
2023/07/24 07:41:06;;;;;;;2.45;1.77;;;24.90;56.30;;;;;;5041795;28;21632;-62
2023/07/24 07:43:32;;;;;;;2.30;1.98;;;25.00;56.30;;;;;;5037654;28;20046;-62
2023/07/24 07:45:59;;;;;;;3.47;2.00;;;25.00;56.20;;;;;;5043283;28;20033;-63
2023/07/24 07:48:25;;;;;;;2.40;1.80;;;25.00;56.10;;;;;;5043985;28;20224;-60
2023/07/24 07:50:51;;;;;;;3.22;2.60;;;25.00;56.00;;;;;;5043304;28;20120;-61
2023/07/24 07:53:17;;;;;;;3.25;2.50;;;25.00;55.90;;;;;;5041306;28;20025;-62
2023/07/24 07:55:43;;;;;;;2.78;2.40;;;25.00;55.90;;;;;;5041547;28;20047;-63
2023/07/24 07:58:09;;;;;;;2.35;2.15;;;25.00;55.80;;;;;;5025390;28;20025;-62
2023/07/24 08:00:35;;;;;;;2.50;2.30;;;25.00;55.80;;;;;;5044215;28;20117;-63
2023/07/24 08:03:01;;;;;;;2.40;2.17;;;25.00;55.60;;;;;;5047392;28;20456;-63
2023/07/24 08:05:27;;;;;;;3.25;2.65;;;25.00;55.60;;;;;;5034884;28;20093;-63
2023/07/24 08:07:53;;;;;;;3.55;2.40;;;25.10;55.50;;;;;;5019572;28;20096;-62
2023/07/24 08:10:20;;;;;;;2.70;2.22;;;25.00;55.40;;;;;;5031370;28;20037;-61
2023/07/24 08:12:46;;;;;;;2.70;2.47;;;25.10;55.40;;;;;;5035774;28;20030;-63
2023/07/24 08:15:12;;;;;;;3.13;2.35;;;25.00;55.20;;;;;;5043984;28;20086;-62
2023/07/24 08:17:38;;;;;;;4.20;3.05;;;25.10;55.30;;;;;;5042419;28;20278;-64
2023/07/24 08:20:04;;;;;;;3.20;2.35;;;25.10;55.20;;;;;;5047303;28;20137;-62
2023/07/24 08:22:30;;;;;;;3.03;2.58;;;25.10;55.20;;;;;;5034915;28;20041;-63
2023/07/24 08:24:56;;;;;;;3.15;2.42;;;25.10;55.20;;;;;;5040270;28;20091;-62
2023/07/24 08:27:22;;;;;;;3.08;2.65;;;25.10;55.20;;;;;;5033453;28;20056;-62
2023/07/24 08:29:51;;;;;;;2.80;2.30;;;25.10;55.10;;;;;;5051095;28;20145;-61
2023/07/24 08:32:17;;;;;;;3.08;2.70;;;25.10;55.20;;;;;;5019497;28;20389;-62
2023/07/24 08:34:43;;;;;;;4.05;2.92;;;25.10;55.20;;;;;;5050531;28;20098;-62
2023/07/24 08:37:09;;;;;;;3.15;2.50;;;25.10;55.20;;;;;;5043139;28;20103;-61
2023/07/24 08:39:35;;;;;;;3.10;2.53;;;25.20;55.40;;;;;;5027336;28;20341;-61
2023/07/24 08:42:12;;;;;;;2.53;2.33;;;25.10;55.40;;;;;;5021345;28;20079;-62
2023/07/24 08:44:38;;;;;;;3.92;2.58;;;25.20;55.60;;;;;;5049187;28;20055;-64
2023/07/24 08:47:06;;;;;;;3.92;3.03;;;25.20;55.70;;;;;;5047232;28;20056;-62
2023/07/24 08:49:33;;;;;;;3.15;2.60;;;25.20;55.60;;;;;;5048201;28;20032;-62
2023/07/24 08:52:00;;;;;;;3.45;2.80;;;25.20;56.20;;;;;;5049597;28;20028;-62
2023/07/24 08:54:26;;;;;;;2.50;2.30;;;25.20;55.50;;;;;;5043934;28;20021;-62
2023/07/24 08:56:53;;;;;;;3.75;2.80;;;25.20;55.30;;;;;;5050342;28;20347;-62
2023/07/24 08:59:19;;;;;;;3.03;2.50;;;25.20;55.20;;;;;;5048307;28;20102;-61
2023/07/24 09:01:45;;;;;;;3.60;3.08;;;25.30;55.10;;;;;;5021275;28;20464;-61
2023/07/24 09:04:11;;;;;;;2.90;2.63;;;25.30;54.90;;;;;;5048220;28;20051;-63
2023/07/24 09:06:37;;;;;;;3.20;2.63;;;25.30;54.70;;;;;;5028661;28;20033;-61
2023/07/24 09:09:13;;;;;;;3.28;2.58;;;25.30;54.70;;;;;;5047505;28;20048;-60
2023/07/24 09:11:53;;;;;;;3.10;2.80;;;25.30;54.50;;;;;;5050097;28;20029;-63
2023/07/24 09:14:30;;;;;;;4.63;2.55;;;25.30;54.50;;;;;;5048913;28;20037;-60
2023/07/24 09:17:11;;;;;;;2.95;2.50;;;25.30;54.40;;;;;;5047158;28;20421;-61
2023/07/24 09:19:38;;;;;;;4.25;2.85;;;25.30;54.30;;;;;;5029727;28;20025;-62
2023/07/24 09:22:12;;;;;;;2.80;2.50;;;25.30;54.30;;;;;;5045779;28;20029;-62
2023/07/24 09:24:38;;;;;;;;;;;25.40;54.30;;;;;;5048808;28;20029;-62
2023/07/24 09:27:07;;;;;;;3.70;2.40;;;25.40;54.30;;;;;;5046363;28;19957;-62
2023/07/24 09:29:34;;;;;;;3.45;2.50;;;25.40;54.30;;;;;;5029706;28;20025;-62
2023/07/24 09:32:01;;;;;;;4.53;2.50;;;25.40;54.30;;;;;;5043984;28;20440;-61
2023/07/24 09:34:27;;;;;;;3.60;2.60;;;25.40;54.20;;;;;;5046303;28;20021;-62
2023/07/24 09:36:53;;;;;;;4.30;2.70;;;25.40;54.10;;;;;;5012868;28;20480;-63
2023/07/24 09:39:25;;;;;;;3.47;2.30;;;25.50;54.20;;;;;;5047675;28;20151;-62
2023/07/24 09:41:52;;;;;;;2.58;2.20;;;25.50;54.00;;;;;;5029312;28;20498;-62
2023/07/24 09:44:18;;;;;;;2.65;2.45;;;25.50;53.90;;;;;;5046899;28;20040;-62
2023/07/24 09:46:44;;;;;;;4.65;2.30;;;25.50;53.80;;;;;;5046851;28;20076;-62
2023/07/24 09:49:10;;;;;;;3.47;2.60;;;25.50;53.70;;;;;;5045482;28;20053;-63
2023/07/24 09:51:38;;;;;;;3.10;2.25;;;25.50;53.60;;;;;;5048704;28;20057;-63
2023/07/24 09:54:32;;;;;;;3.58;2.33;;;25.50;53.50;;;;;;5047593;28;20036;-62
2023/07/24 09:56:59;;;;;;;2.42;2.20;;;25.60;53.40;;;;;;5042041;28;20060;-62
2023/07/24 09:59:29;;;;;;;3.17;2.17;;;25.60;53.30;;;;;;5048757;28;20033;-62
2023/07/24 10:01:55;;;;;;;3.25;2.58;;;25.60;53.00;;;;;;5042508;28;20451;-62
2023/07/24 10:04:24;;;;;;;2.30;2.00;;;25.60;52.80;;;;;;5048549;28;20025;-62
2023/07/24 10:06:51;;;;;;;2.80;2.40;;;25.60;52.60;;;;;;5045283;28;20112;-62
2023/07/24 10:09:21;;;;;;;4.20;2.70;;;25.60;52.50;;;;;;5046253;28;20056;-62
2023/07/24 10:11:47;;;;;;;2.97;2.17;;;25.60;52.30;;;;;;5046705;28;20040;-62
2023/07/24 10:14:13;;;;;;;2.63;2.08;;;25.60;52.20;;;;;;5047899;28;20106;-61
2023/07/24 10:16:40;;;;;;;2.63;1.95;;;25.60;52.10;;;;;;5048853;28;20033;-62
2023/07/24 10:19:15;;;;;;;3.85;2.20;;;25.60;52.10;;;;;;5023338;28;20393;-62
2023/07/24 10:21:49;;;;;;;3.00;2.05;;;25.60;52.00;;;;;;5043125;28;20494;-62
2023/07/24 10:24:15;;;;;;;3.13;2.33;;;25.60;52.10;;;;;;5045262;28;20306;-63
2023/07/24 10:26:41;;;;;;;2.65;2.00;;;25.60;52.10;;;;;;5021247;28;20665;-63
2023/07/24 10:29:09;;;;;;;2.72;1.92;;;25.60;52.10;;;;;;5047437;28;20025;-64
2023/07/24 10:31:35;;;;;;;2.58;2.30;;;25.60;52.10;;;;;;5045856;28;20039;-62
2023/07/24 10:34:07;;;;;;;2.25;2.05;;;25.60;52.00;;;;;;5045994;28;20028;-63
2023/07/24 10:36:38;;;;;;;2.90;2.08;;;25.60;52.00;;;;;;5045673;28;20085;-63
2023/07/24 10:39:18;;;;;;;2.60;2.10;;;25.60;51.90;;;;;;5044833;28;20420;-63
2023/07/24 10:41:46;;;;;;;2.78;2.30;;;25.60;51.80;;;;;;5024362;28;20057;-62
2023/07/24 10:44:12;;;;;;;3.40;2.20;;;25.60;51.80;;;;;;5023667;28;20029;-62
2023/07/24 10:46:40;;;;;;;2.35;2.03;;;25.60;51.70;;;;;;5040058;28;20067;-64
2023/07/24 10:49:07;;;;;;;2.30;2.10;;;25.60;51.60;;;;;;5046624;28;20401;-62
2023/07/24 10:51:34;;;;;;;3.10;2.58;;;25.60;51.60;;;;;;5045901;28;20086;-62
2023/07/24 10:54:01;;;;;;;2.13;1.75;;;25.60;51.50;;;;;;5045476;28;20025;-62
2023/07/24 10:56:27;;;;;;;2.78;2.40;;;25.60;51.50;;;;;;5041094;28;20032;-62
2023/07/24 10:58:53;;;;;;;2.47;2.00;;;25.60;51.40;;;;;;5044280;28;20029;-63
2023/07/24 11:01:19;;;;;;;3.35;2.30;;;25.60;51.40;;;;;;5038902;28;20349;-63
2023/07/24 11:03:46;;;;;;;3.58;2.30;;;25.60;51.30;;;;;;5046013;28;20037;-63
2023/07/24 11:06:19;;;;;;;2.85;1.98;;;25.60;51.30;;;;;;5038025;28;20028;-63
2023/07/24 11:08:55;;;;;;;2.63;1.90;;;25.60;51.40;;;;;;5039975;28;20126;-63
2023/07/24 11:11:23;;;;;;;2.10;1.70;;;25.70;51.50;;;;;;5038324;28;20057;-62
2023/07/24 11:13:49;;;;;;;2.22;1.90;;;25.70;51.50;;;;;;5041249;28;20041;-62
2023/07/24 11:16:15;;;;;;;2.83;2.20;;;25.70;51.50;;;;;;5041271;28;20047;-62
2023/07/24 11:18:46;;;;;;;2.03;1.63;;;25.70;51.50;;;;;;5047390;28;20021;-63
2023/07/24 11:21:12;;;;;;;2.78;1.83;;;25.70;51.40;;;;;;5041580;28;20066;-63
2023/07/24 11:23:54;;;;;;;1.63;1.52;;;25.70;51.40;;;;;;5042817;28;20064;-62
2023/07/24 11:26:22;;;;;;;2.55;2.33;;;25.70;51.40;;;;;;5046697;28;20423;-62
2023/07/24 11:28:53;;;;;;;2.35;1.98;;;25.70;51.40;;;;;;5045855;28;20126;-59
2023/07/24 11:31:21;;;;;;;2.72;1.83;;;25.70;51.30;;;;;;5040768;28;20132;-62
2023/07/24 11:33:49;;;;;;;2.45;1.80;;;25.70;51.30;;;;;;5049303;28;20108;-62
2023/07/24 11:36:16;;;;;;;2.63;1.90;;;25.70;51.20;;;;;;5052234;28;20036;-62
2023/07/24 11:38:44;;;;;;;2.03;1.83;;;25.70;51.10;;;;;;5051021;28;20029;-63
2023/07/24 11:41:10;;;;;;;2.80;2.22;;;25.70;51.10;;;;;;5031882;28;20030;-64
2023/07/24 11:43:46;;;;;;;2.30;1.90;;;25.70;51.00;;;;;;5032293;28;20049;-62
2023/07/24 11:46:11;;;;;;;2.22;1.90;;;25.70;50.90;;;;;;5031706;28;20049;-62
2023/07/24 11:48:41;;;;;;;2.80;2.13;;;25.70;50.90;;;;;;5037213;28;20025;-63
2023/07/24 11:51:07;;;;;;;3.05;1.85;;;25.70;50.90;;;;;;5051786;28;20021;-61
2023/07/24 11:53:33;;;;;;;2.22;1.92;;;25.80;51.60;;;;;;5034400;28;20027;-62
2023/07/24 11:56:01;;;;;;;2.10;1.77;;;25.70;50.90;;;;;;5033855;28;20459;-61
2023/07/24 11:58:28;;;;;;;1.65;1.40;;;25.70;50.80;;;;;;5051859;28;20036;-62
2023/07/24 12:00:55;;;;;;;2.65;1.80;;;25.70;50.80;;;;;;5051584;28;20033;-61
2023/07/24 12:03:22;;;;;;;1.95;1.60;;;25.70;50.80;;;;;;5032774;28;20052;-61
2023/07/24 12:05:48;;;;;;;2.55;1.80;;;25.70;50.80;;;;;;5051765;28;20114;-62
2023/07/24 12:08:14;;;;;;;1.80;1.70;;;25.70;50.80;;;;;;5054381;28;20075;-62
2023/07/24 12:10:41;;;;;;;2.28;1.73;;;25.70;50.80;;;;;;5040663;28;20033;-61
2023/07/24 12:13:07;;;;;;;2.28;1.85;;;25.70;50.80;;;;;;5039643;28;20338;-62
2023/07/24 12:15:35;;;;;;;2.10;1.55;;;25.70;50.70;;;;;;5039371;28;20389;-64
2023/07/24 12:18:02;;;;;;;2.10;1.60;;;25.80;50.80;;;;;;5057596;28;20037;-61
2023/07/24 12:20:28;;;;;;;1.92;1.48;;;25.70;50.70;;;;;;5058443;28;20040;-62
2023/07/24 12:22:54;;;;;;;2.45;1.90;;;25.70;50.70;;;;;;5051446;28;20129;-62
2023/07/24 12:25:20;;;;;;;2.47;1.52;;;25.80;50.70;;;;;;5058496;28;20044;-62
2023/07/24 12:27:47;;;;;;;2.63;1.73;;;25.80;50.70;;;;;;5057993;28;20111;-61
2023/07/24 12:30:13;;;;;;;2.90;2.10;;;25.80;50.60;;;;;;5057976;28;20114;-61
2023/07/24 12:32:39;;;;;;;1.70;1.60;;;25.80;51.20;;;;;;5057654;28;20117;-62
2023/07/24 12:35:07;;;;;;;3.35;1.67;;;25.80;50.50;;;;;;5040169;28;20348;-61
2023/07/24 12:37:33;;;;;;;2.22;1.60;;;25.80;50.40;;;;;;5057530;28;20487;-62
2023/07/24 12:39:58;;;;;;;1.70;1.52;;;25.80;50.40;;;;;;5039974;28;20087;-62
2023/07/24 12:42:24;;;;;;;2.78;1.98;;;25.80;50.30;;;;;;5057758;28;20052;-62
2023/07/24 12:44:50;;;;;;;1.95;1.65;;;25.80;50.20;;;;;;5057950;28;20055;-62
2023/07/24 12:47:16;;;;;;;2.25;1.88;;;25.80;50.20;;;;;;5039739;28;20052;-62